Time;durP1;ratioP1;P1;durP2;ratioP2;P2;SDS_P1;SDS_P2;PMS_P1;PMS_P2;Temp;Humidity;BMP_temperature;BMP_pressure;BME280_temperature;BME280_humidity;BME280_pressure;Samples;Min_cycle;Max_cycle;Signal;HPM_P1;HPM_P2
2022/11/03 00:00:56;;;;;;;;;;;10.80;99.90;;;;;;5052675;28;19933;-66
2022/11/03 00:03:21;;;;;;;;;;;10.80;99.90;;;;;;5083941;27;19954;-67
2022/11/03 00:06:05;;;;;;;;;;;10.70;99.90;;;;;;5049781;28;20015;-69
2022/11/03 00:08:35;;;;;;;;;;;10.70;99.90;;;;;;5051333;28;20031;-67
2022/11/03 00:11:09;;;;;;;;;;;10.70;99.90;;;;;;5049135;28;19973;-67
2022/11/03 00:13:35;;;;;;;;;;;10.70;99.90;;;;;;5080181;27;19928;-68
2022/11/03 00:16:00;;;;;;;;;;;10.70;99.90;;;;;;5051920;28;20074;-68
2022/11/03 00:18:26;;;;;;;;;;;10.70;99.90;;;;;;5080585;27;20385;-66
2022/11/03 00:20:59;;;;;;;;;;;10.70;99.90;;;;;;5049106;28;19924;-66
2022/11/03 00:23:32;;;;;;;;;;;10.70;99.90;;;;;;5050399;28;19968;-67
2022/11/03 00:26:06;;;;;;;;;;;10.70;99.90;;;;;;5043817;28;19951;-67
2022/11/03 00:28:32;;;;;;;;;;;10.60;99.90;;;;;;5052735;28;20033;-67
2022/11/03 00:30:59;;;;;;;;;;;10.60;99.90;;;;;;5081729;27;19928;-67
2022/11/03 00:33:26;;;;;;;;;;;10.60;99.90;;;;;;5066647;28;19925;-67
2022/11/03 00:35:55;;;;;;;;;;;10.60;99.90;;;;;;5036017;28;20290;-68
2022/11/03 00:38:21;;;;;;;;;;;10.50;99.90;;;;;;5051024;28;19929;-66
2022/11/03 00:40:51;;;;;;;;;;;10.50;99.90;;;;;;5049833;28;20442;-66
2022/11/03 00:43:17;;;;;;;;;;;10.50;99.90;;;;;;5050348;28;19924;-68
2022/11/03 00:45:42;;;;;;;;;;;10.50;99.90;;;;;;5048996;28;20290;-67
2022/11/03 00:50:52;;;;;;;;;;;10.40;99.90;;;;;;5048172;28;19931;-67
2022/11/03 00:53:18;;;;;;;;;;;10.40;99.90;;;;;;5053358;28;19920;-66
2022/11/03 00:55:47;;;;;;;;;;;10.30;99.90;;;;;;5051181;28;19976;-67
2022/11/03 00:58:13;;;;;;;;;;;10.30;99.90;;;;;;5049860;28;19970;-67
2022/11/03 01:00:38;;;;;;;;;;;10.30;99.90;;;;;;5045550;28;19946;-67
2022/11/03 01:03:05;;;;;;;;;;;10.30;99.90;;;;;;5049275;28;19978;-66
2022/11/03 01:08:17;;;;;;;;;;;10.20;99.90;;;;;;5083319;28;19951;-67
2022/11/03 01:11:42;;;;;;;;;;;10.20;99.90;;;;;;5047644;28;19925;-67
2022/11/03 01:13:28;;;;;;;;;;;10.20;99.90;;;;;;5053245;28;19936;-66
2022/11/03 01:15:55;;;;;;;;;;;10.10;99.90;;;;;;5052950;28;20286;-66
2022/11/03 01:18:21;;;;;;;;;;;10.00;99.90;;;;;;5084504;27;19928;-67
2022/11/03 01:20:52;;;;;;;;;;;10.00;99.90;;;;;;5071495;28;20361;-68
2022/11/03 01:23:18;;;;;;;;;;;10.00;99.90;;;;;;5052875;28;20247;-67
2022/11/03 01:25:43;;;;;;;;;;;10.00;99.90;;;;;;5055074;28;21221;-67
2022/11/03 01:28:08;;;;;;;;;;;10.00;99.90;;;;;;5087808;28;19927;-66
2022/11/03 01:30:34;;;;;;;;;;;10.00;99.90;;;;;;5056027;28;19924;-68
2022/11/03 01:32:59;;;;;;;;;;;10.00;99.90;;;;;;5053283;28;19951;-66
2022/11/03 01:35:25;;;;;;;;;;;10.00;99.90;;;;;;5054148;28;19928;-66
2022/11/03 01:37:50;;;;;;;;;;;9.90;99.90;;;;;;5053943;28;20014;-67
2022/11/03 01:40:16;;;;;;;;;;;9.90;99.90;;;;;;5053852;28;20054;-66
2022/11/03 01:42:41;;;;;;;;;;;9.90;99.90;;;;;;5053780;28;20565;-66
2022/11/03 01:45:07;;;;;;;;;;;9.80;99.90;;;;;;5053557;28;19928;-66
2022/11/03 01:47:33;;;;;;;;;;;9.80;99.90;;;;;;5050343;28;19929;-68
2022/11/03 01:50:07;;;;;;;;;;;9.80;99.90;;;;;;5050240;28;20023;-67
2022/11/03 01:52:35;;;;;;;;;;;9.80;99.90;;;;;;5054482;28;20586;-66
2022/11/03 01:55:05;;;;;;;;;;;9.70;99.90;;;;;;5058505;28;20507;-66
2022/11/03 01:57:43;;;;;;;;;;;9.70;99.90;;;;;;5062864;28;20381;-66
2022/11/03 02:00:09;;;;;;;;;;;9.70;99.90;;;;;;5052658;28;19920;-67
2022/11/03 02:02:34;;;;;;;;;;;9.70;99.90;;;;;;5052458;28;19933;-66
2022/11/03 02:05:01;;;;;;;;;;;9.70;99.90;;;;;;5066123;28;19928;-68
2022/11/03 02:07:32;;;;;;;;;;;9.70;99.90;;;;;;5089705;27;20015;-67
2022/11/03 02:09:58;;;;;;;;;;;9.70;99.90;;;;;;5051186;28;19944;-67
2022/11/03 02:12:24;;;;;;;;;;;9.70;99.90;;;;;;5050171;28;19935;-67
2022/11/03 02:15:10;;;;;;;;;;;9.70;99.90;;;;;;5051271;28;20050;-66
2022/11/03 02:17:36;;;;;;;;;;;9.70;99.90;;;;;;5049335;28;20291;-68
2022/11/03 02:20:02;;;;;;;;;;;9.70;99.90;;;;;;5051948;28;19928;-66
2022/11/03 02:22:46;;;;;;;;;;;9.70;99.90;;;;;;5048780;28;19933;-66
2022/11/03 02:25:27;;;;;;;;;;;9.70;99.90;;;;;;5085009;28;19939;-67
2022/11/03 02:27:52;;;;;;;;;;;9.70;99.90;;;;;;5054595;28;19929;-67
2022/11/03 02:30:18;;;;;;;;;;;9.70;99.90;;;;;;5050250;28;19935;-66
2022/11/03 02:33:13;;;;;;;;;;;9.70;99.90;;;;;;5069291;28;20039;-67
2022/11/03 02:35:45;;;;;;;;;;;9.70;99.90;;;;;;5039316;28;19925;-67
2022/11/03 02:38:13;;;;;;;;;;;9.70;99.90;;;;;;5051510;28;20326;-66
2022/11/03 02:40:41;;;;;;;;;;;9.70;99.90;;;;;;5054466;28;19928;-68
2022/11/03 02:43:08;;;;;;;;;;;9.60;99.90;;;;;;5049528;28;20018;-66
2022/11/03 02:45:34;;;;;;;;;;;9.80;99.90;;;;;;5054268;28;20337;-67
2022/11/03 02:48:00;;;;;;;;;;;9.80;99.90;;;;;;5052592;28;19928;-68
2022/11/03 02:50:27;;;;;;;;;;;9.80;99.90;;;;;;5052348;28;19935;-67
2022/11/03 02:52:57;;;;;;;;;;;9.80;99.90;;;;;;5052914;28;20334;-66
2022/11/03 02:55:37;;;;;;;;;;;9.90;99.90;;;;;;5086359;27;19920;-66
2022/11/03 02:58:02;;;;;;;;;;;9.90;99.90;;;;;;5051893;28;19929;-67
2022/11/03 03:00:29;;;;;;;;;;;9.90;99.90;;;;;;5055382;28;19921;-66
2022/11/03 03:03:01;;;;;;;;;;;9.90;99.90;;;;;;5082636;28;19935;-66
2022/11/03 03:05:28;;;;;;;;;;;9.90;99.90;;;;;;5050615;28;19928;-66
2022/11/03 03:07:56;;;;;;;;;;;9.80;99.90;;;;;;5052961;28;19974;-67
2022/11/03 03:10:24;;;;;;;;;;;9.80;99.90;;;;;;5051097;28;19924;-67
2022/11/03 03:12:51;;;;;;;;;;;9.80;99.90;;;;;;5052311;28;19924;-67
2022/11/03 03:15:19;;;;;;;;;;;9.80;99.90;;;;;;5053545;28;20015;-67
2022/11/03 03:17:50;;;;;;;;;;;9.80;99.90;;;;;;5052737;28;19920;-68
2022/11/03 03:20:24;;;;;;;;;;;9.80;99.90;;;;;;5054587;28;20355;-68
2022/11/03 03:22:57;;;;;;;;;;;9.80;99.90;;;;;;5051339;28;20028;-67
2022/11/03 03:25:33;;;;;;;;;;;9.80;99.90;;;;;;5055702;28;20497;-67
2022/11/03 03:28:08;;;;;;;;;;;9.90;99.90;;;;;;5051510;28;19967;-68
2022/11/03 03:30:34;;;;;;;;;;;9.90;99.90;;;;;;5050379;28;20477;-67
2022/11/03 03:33:00;;;;;;;;;;;9.90;99.90;;;;;;5051597;28;19924;-68
2022/11/03 03:35:29;;;;;;;;;;;9.90;99.90;;;;;;5048245;28;20358;-67
2022/11/03 03:37:57;;;;;;;;;;;9.90;99.90;;;;;;5050380;28;19929;-67
2022/11/03 03:40:25;;;;;;;;;;;9.90;99.90;;;;;;5054267;28;19937;-66
2022/11/03 03:42:51;;;;;;;;;;;9.90;99.90;;;;;;5080522;27;19925;-67
2022/11/03 03:45:18;;;;;;;;;;;9.90;99.90;;;;;;5053953;28;20013;-67
2022/11/03 03:47:44;;;;;;;;;;;9.90;99.90;;;;;;5050901;28;20285;-66
2022/11/03 03:50:10;;;;;;;;;;;9.90;99.90;;;;;;5048903;28;19928;-66
2022/11/03 03:52:36;;;;;;;;;;;9.90;99.90;;;;;;5065245;28;20279;-66
2022/11/03 03:55:02;;;;;;;;;;;9.90;99.90;;;;;;5047542;28;19960;-67
2022/11/03 03:57:29;;;;;;;;;;;9.90;99.90;;;;;;5046995;28;19940;-67
2022/11/03 03:59:54;;;;;;;;;;;9.90;99.90;;;;;;5051904;28;19967;-67
2022/11/03 04:02:20;;;;;;;;;;;9.90;99.90;;;;;;5042919;28;19933;-66
2022/11/03 04:04:45;;;;;;;;;;;9.90;99.90;;;;;;5050787;28;19929;-66
2022/11/03 04:09:54;;;;;;;;;;;9.90;99.90;;;;;;5049406;28;20378;-67
2022/11/03 04:23:17;;;;;;;;;;;9.90;99.90;;;;;;5051852;28;19977;-67
2022/11/03 04:25:49;;;;;;;;;;;9.90;99.90;;;;;;5054983;28;19932;-67
2022/11/03 04:28:15;;;;;;;;;;;10.00;99.90;;;;;;5067123;28;20359;-67
2022/11/03 04:30:40;;;;;;;;;;;10.00;99.90;;;;;;5083917;28;20023;-68
2022/11/03 04:33:16;;;;;;;;;;;10.00;99.90;;;;;;5049847;28;19928;-70
2022/11/03 04:35:45;;;;;;;;;;;10.00;99.90;;;;;;5051287;28;20278;-67
2022/11/03 04:38:14;;;;;;;;;;;10.00;99.90;;;;;;5054456;28;19935;-67
2022/11/03 04:40:41;;;;;;;;;;;10.00;99.90;;;;;;5050426;28;19928;-68
2022/11/03 04:43:14;;;;;;;;;;;10.00;99.90;;;;;;5053764;28;19920;-68
2022/11/03 04:45:42;;;;;;;;;;;10.00;99.90;;;;;;5054107;28;19978;-67
2022/11/03 04:48:11;;;;;;;;;;;10.10;99.90;;;;;;5083371;28;19931;-67
2022/11/03 04:50:37;;;;;;;;;;;10.00;99.90;;;;;;5051195;28;21357;-67
2022/11/03 04:53:07;;;;;;;;;;;10.00;99.90;;;;;;5045042;28;19924;-67
2022/11/03 04:55:33;;;;;;;;;;;10.00;99.90;;;;;;5048919;28;20544;-68
2022/11/03 04:58:09;;;;;;;;;;;10.00;99.90;;;;;;5053921;28;19973;-68
2022/11/03 05:00:34;;;;;;;;;;;10.00;99.90;;;;;;5046713;28;20371;-67
2022/11/03 05:03:00;;;;;;;;;;;10.10;99.90;;;;;;5034480;28;19935;-68
2022/11/03 05:05:25;;;;;;;;;;;10.10;99.90;;;;;;5048538;28;19929;-66
2022/11/03 05:07:52;;;;;;;;;;;10.00;99.90;;;;;;5049121;28;20473;-66
2022/11/03 05:10:25;;;;;;;;;;;10.10;99.90;;;;;;5052767;28;19974;-67
2022/11/03 05:12:51;;;;;;;;;;;10.10;99.90;;;;;;5048791;28;19935;-68
2022/11/03 05:15:29;;;;;;;;;;;10.10;99.90;;;;;;5081171;28;20294;-68
2022/11/03 05:17:55;;;;;;;;;;;10.00;99.90;;;;;;5049653;28;20382;-67
2022/11/03 05:20:33;;;;;;;;;;;10.00;99.90;;;;;;5047710;28;20019;-67
2022/11/03 05:22:59;;;;;;;;;;;10.10;99.90;;;;;;5050250;28;19933;-67
2022/11/03 05:25:45;;;;;;;;;;;10.10;99.90;;;;;;5048987;28;19952;-68
2022/11/03 05:28:22;;;;;;;;;;;10.10;99.90;;;;;;5048275;28;20360;-67
2022/11/03 05:30:48;;;;;;;;;;;10.00;99.90;;;;;;5064002;28;21569;-68
2022/11/03 05:33:18;;;;;;;;;;;10.00;99.90;;;;;;5044554;28;19924;-66
2022/11/03 05:35:43;;;;;;;;;;;10.10;99.90;;;;;;5049579;28;20004;-67
2022/11/03 05:38:11;;;;;;;;;;;10.10;99.90;;;;;;5050093;28;20301;-68
2022/11/03 05:40:36;;;;;;;;;;;10.10;99.90;;;;;;5077310;28;20501;-67
2022/11/03 05:43:02;;;;;;;;;;;10.10;99.90;;;;;;5047187;28;19935;-67
2022/11/03 05:45:32;;;;;;;;;;;10.10;99.90;;;;;;5047165;28;20018;-68
2022/11/03 05:48:00;;;;;;;;;;;10.10;99.90;;;;;;5047961;28;19960;-67
2022/11/03 05:50:35;;;;;;;;;;;10.10;99.90;;;;;;5048646;28;19975;-68
2022/11/03 05:53:09;;;;;;;;;;;10.10;99.90;;;;;;5081158;28;20438;-66
2022/11/03 05:55:36;;;;;;;;;;;10.10;99.90;;;;;;5044543;28;19929;-66
2022/11/03 05:58:14;;;;;;;;;;;10.10;99.90;;;;;;5044636;28;19925;-69
2022/11/03 06:00:41;;;;;;;;;;;10.10;99.90;;;;;;5047612;28;19928;-68
2022/11/03 06:03:12;;;;;;;;;;;10.10;99.90;;;;;;5051661;28;19928;-68
2022/11/03 06:05:37;;;;;;;;;;;10.10;99.90;;;;;;5035471;28;20523;-66
2022/11/03 06:08:12;;;;;;;;;;;10.10;99.90;;;;;;5051715;28;19931;-66
2022/11/03 06:10:44;;;;;;;;;;;10.10;99.90;;;;;;5047667;28;19929;-66
2022/11/03 06:13:15;;;;;;;;;;;10.10;99.90;;;;;;5048933;28;19925;-68
2022/11/03 06:15:41;;;;;;;;;;;10.10;99.90;;;;;;5051410;28;20288;-67
2022/11/03 06:18:28;;;;;;;;;;;10.10;99.90;;;;;;5086126;27;19929;-67
2022/11/03 06:20:56;;;;;;;;;;;10.10;99.90;;;;;;5080443;27;19939;-66
2022/11/03 06:23:22;;;;;;;;;;;10.10;99.90;;;;;;5051110;28;19928;-67
2022/11/03 06:25:48;;;;;;;;;;;10.10;99.90;;;;;;5047739;28;20025;-67
2022/11/03 06:28:19;;;;;;;;;;;10.20;99.90;;;;;;5065758;28;19939;-66
2022/11/03 06:30:45;;;;;;;;;;;10.20;99.90;;;;;;5046149;28;19956;-68
2022/11/03 06:33:23;;;;;;;;;;;10.10;99.90;;;;;;5045980;28;19944;-66
2022/11/03 06:35:50;;;;;;;;;;;10.10;99.90;;;;;;5052567;28;19921;-66
2022/11/03 06:38:21;;;;;;;;;;;10.10;99.90;;;;;;5081703;28;19932;-66
2022/11/03 06:40:49;;;;;;;;;;;10.10;99.90;;;;;;5050014;28;19928;-67
2022/11/03 06:43:20;;;;;;;;;;;10.10;99.90;;;;;;5049307;28;21678;-66
2022/11/03 06:45:50;;;;;;;;;;;10.10;99.90;;;;;;5043652;28;19973;-68
2022/11/03 06:48:19;;;;;;;;;;;10.10;99.90;;;;;;5051073;28;19921;-67
2022/11/03 06:50:45;;;;;;;;;;;10.10;99.90;;;;;;5047870;28;19928;-67
2022/11/03 06:53:10;;;;;;;;;;;10.10;99.90;;;;;;5046576;28;19955;-67
2022/11/03 06:55:37;;;;;;;;;;;10.20;99.90;;;;;;5049989;28;19928;-67
2022/11/03 06:58:21;;;;;;;;;;;10.10;99.90;;;;;;5080242;27;19925;-67
2022/11/03 07:00:47;;;;;;;;;;;10.20;99.90;;;;;;5050850;28;19940;-66
2022/11/03 07:03:16;;;;;;;;;;;10.20;99.90;;;;;;5031746;28;20310;-68
2022/11/03 07:05:44;;;;;;;;;;;10.30;99.90;;;;;;5049689;28;19928;-67
2022/11/03 07:08:24;;;;;;;;;;;10.30;99.90;;;;;;5054768;28;19932;-66
2022/11/03 07:10:54;;;;;;;;;;;10.30;99.90;;;;;;5051115;28;19935;-67
2022/11/03 07:13:23;;;;;;;;;;;10.40;99.90;;;;;;5049538;28;20417;-68
2022/11/03 07:15:49;;;;;;;;;;;10.50;99.90;;;;;;5069383;28;19934;-67
2022/11/03 07:18:18;;;;;;;;;;;10.50;99.90;;;;;;5051526;28;19928;-66
2022/11/03 07:20:43;;;;;;;;;;;10.50;99.90;;;;;;5050269;28;19970;-67
2022/11/03 07:23:11;;;;;;;;;;;10.60;99.90;;;;;;5032845;28;20347;-68
2022/11/03 07:25:37;;;;;;;;;;;10.60;99.90;;;;;;5087094;28;19932;-67
2022/11/03 07:28:03;;;;;;;;;;;10.60;99.90;;;;;;5050261;28;19924;-67
2022/11/03 07:30:32;;;;;;;;;;;10.70;99.90;;;;;;5050875;28;20410;-67
2022/11/03 07:33:08;;;;;;;;;;;10.70;99.90;;;;;;5053683;28;19928;-67
2022/11/03 07:35:35;;;;;;;;;;;10.80;99.90;;;;;;5069285;28;19921;-67
2022/11/03 07:38:09;;;;;;;;;;;10.80;99.90;;;;;;5082982;27;20960;-67
2022/11/03 07:40:36;;;;;;;;;;;10.80;99.90;;;;;;5051203;28;19921;-68
2022/11/03 07:43:10;;;;;;;;;;;10.90;99.90;;;;;;5047609;28;20394;-67
2022/11/03 07:45:50;;;;;;;;;;;10.90;99.90;;;;;;5049445;28;19990;-67
2022/11/03 07:48:25;;;;;;;;;;;11.00;99.90;;;;;;5052494;28;19928;-67
2022/11/03 07:50:51;;;;;;;;;;;11.00;99.90;;;;;;5061387;28;20247;-67
2022/11/03 07:53:23;;;;;;;;;;;11.00;99.90;;;;;;5052153;28;19928;-67
2022/11/03 07:55:49;;;;;;;;;;;11.00;99.90;;;;;;5052215;28;19932;-67
2022/11/03 07:58:19;;;;;;;;;;;11.10;99.90;;;;;;5052262;28;20296;-66
2022/11/03 08:00:44;;;;;;;;;;;11.20;99.90;;;;;;5069620;28;19928;-68
2022/11/03 08:03:17;;;;;;;;;;;11.20;99.90;;;;;;5052889;28;19978;-67
2022/11/03 08:05:43;;;;;;;;;;;11.30;99.90;;;;;;5085620;28;19925;-67
2022/11/03 08:08:09;;;;;;;;;;;11.30;99.90;;;;;;5053788;28;19924;-67
2022/11/03 08:10:34;;;;;;;;;;;11.40;99.90;;;;;;5051709;28;19928;-67
2022/11/03 08:13:00;;;;;;;;;;;11.40;99.90;;;;;;5050495;28;20391;-67
2022/11/03 08:15:25;;;;;;;;;;;11.50;99.90;;;;;;5050096;28;19928;-67
2022/11/03 08:17:50;;;;;;;;;;;11.50;99.90;;;;;;5055185;28;19966;-69
2022/11/03 08:20:16;;;;;;;;;;;11.60;99.90;;;;;;5052691;28;19929;-67
2022/11/03 08:22:41;;;;;;;;;;;11.60;99.90;;;;;;5052515;28;19925;-69
2022/11/03 08:25:07;;;;;;;;;;;11.70;99.90;;;;;;5053186;28;20372;-67
2022/11/03 08:27:33;;;;;;;;;;;11.70;99.90;;;;;;5053442;28;19921;-67
2022/11/03 08:29:58;;;;;;;;;;;11.80;99.90;;;;;;5049682;28;19927;-68
2022/11/03 08:32:24;;;;;;;;;;;11.80;99.90;;;;;;5054195;28;20377;-67
2022/11/03 08:34:49;;;;;;;;;;;11.90;99.90;;;;;;5050047;28;19981;-69
2022/11/03 08:37:15;;;;;;;;;;;11.90;99.90;;;;;;5053596;28;20464;-69
2022/11/03 08:39:40;;;;;;;;;;;12.00;99.90;;;;;;5051007;28;20003;-66
2022/11/03 08:42:06;;;;;;;;;;;12.10;99.90;;;;;;5055534;28;19986;-68
2022/11/03 08:44:31;;;;;;;;;;;12.10;99.90;;;;;;5050200;28;19920;-68
2022/11/03 08:47:08;;;;;;;;;;;12.10;99.90;;;;;;5048218;28;20354;-67
2022/11/03 08:49:33;;;;;;;;;;;12.20;99.90;;;;;;5054875;28;19960;-67
2022/11/03 08:51:59;;;;;;;;;;;12.20;99.90;;;;;;5052927;28;20020;-67
2022/11/03 08:54:25;;;;;;;;;;;12.30;99.90;;;;;;5053862;28;20286;-69
2022/11/03 08:56:50;;;;;;;;;;;12.30;99.90;;;;;;5036970;28;19932;-67
2022/11/03 08:59:17;;;;;;;;;;;12.40;99.90;;;;;;5052988;28;19925;-68
2022/11/03 09:01:43;;;;;;;;;;;12.40;99.90;;;;;;5033760;28;19928;-67
2022/11/03 09:04:09;;;;;;;;;;;12.40;99.90;;;;;;5087423;28;19995;-67
2022/11/03 09:06:34;;;;;;;;;;;12.50;99.90;;;;;;5051327;28;20024;-68
2022/11/03 09:09:00;;;;;;;;;;;12.50;99.90;;;;;;5085219;28;19982;-67
2022/11/03 09:11:25;;;;;;;;;;;12.60;99.90;;;;;;5051388;28;19967;-67
2022/11/03 09:13:51;;;;;;;;;;;12.60;99.90;;;;;;5052631;28;19978;-67
2022/11/03 09:16:16;;;;;;;;;;;12.70;99.90;;;;;;5053161;28;19938;-69
2022/11/03 09:18:42;;;;;;;;;;;12.70;99.90;;;;;;5051832;28;19928;-68
2022/11/03 09:21:07;;;;;;;;;;;12.80;99.90;;;;;;5051416;28;19924;-67
2022/11/03 09:23:33;;;;;;;;;;;12.90;99.90;;;;;;5054042;28;19934;-66
2022/11/03 09:25:58;;;;;;;;;;;13.00;99.90;;;;;;5046481;28;20023;-69
2022/11/03 09:28:24;;;;;;;;;;;13.00;99.90;;;;;;5067981;28;19928;-67
2022/11/03 09:30:49;;;;;;;;;;;13.10;99.90;;;;;;5057432;28;21213;-68
2022/11/03 09:33:15;;;;;;;;;;;13.10;99.90;;;;;;5050002;28;20060;-67
2022/11/03 09:35:40;;;;;;;;;;;13.20;99.90;;;;;;5055938;28;19927;-68
2022/11/03 09:38:06;;;;;;;;;;;13.30;99.90;;;;;;5038961;28;19929;-67
2022/11/03 09:40:36;;;;;;;;;;;13.30;99.90;;;;;;5089270;28;19924;-67
2022/11/03 09:43:01;;;;;;;;;;;13.40;99.90;;;;;;5054345;28;19928;-67
2022/11/03 09:45:27;;;;;;;;;;;13.40;99.90;;;;;;5052998;28;19982;-67
2022/11/03 09:47:52;;;;;;;;;;;13.50;99.90;;;;;;5052213;28;20015;-68
2022/11/03 09:50:19;;;;;;;;;;;13.40;99.90;;;;;;5053956;28;20528;-67
2022/11/03 09:52:47;;;;;;;;;;;13.40;99.90;;;;;;5054105;28;20021;-67
2022/11/03 09:55:18;;;;;;;;;;;13.50;99.90;;;;;;5087323;28;19920;-68
2022/11/03 09:57:44;;;;;;;;;;;13.50;99.90;;;;;;5089395;28;19927;-69
2022/11/03 10:00:18;;;;;;;;;;;13.50;99.90;;;;;;5087970;28;19925;-66
2022/11/03 10:02:44;;;;;;;;;;;13.60;99.90;;;;;;5068789;28;20141;-68
2022/11/03 10:05:12;;;;;;;;;;;13.60;99.90;;;;;;5052332;28;19928;-68
2022/11/03 10:07:37;;;;;;;;;;;13.70;99.90;;;;;;5049878;28;19936;-68
2022/11/03 10:10:03;;;;;;;;;;;13.90;99.90;;;;;;5053545;28;20076;-70
2022/11/03 10:12:30;;;;;;;;;;;14.10;99.90;;;;;;5086458;28;19928;-67
2022/11/03 10:14:55;;;;;;;;;;;14.30;99.90;;;;;;5052161;28;19935;-67
2022/11/03 10:17:26;;;;;;;;;;;14.50;99.90;;;;;;5071677;28;19959;-67
2022/11/03 10:19:54;;;;;;;;;;;14.60;99.90;;;;;;5050991;28;19951;-67
2022/11/03 10:22:20;;;;;;;;;;;14.70;99.90;;;;;;5054215;28;20460;-68
2022/11/03 10:24:45;;;;;;;;;;;14.70;99.90;;;;;;5053215;28;20027;-68
2022/11/03 10:27:24;;;;;;;;;;;14.70;99.90;;;;;;5053787;28;19932;-67
2022/11/03 10:30:09;;;;;;;;;;;14.60;99.90;;;;;;5051765;28;19928;-70
2022/11/03 10:32:35;;;;;;;;;;;14.60;99.90;;;;;;5049009;28;19924;-66
2022/11/03 10:35:02;;;;;;;;;;;14.60;99.90;;;;;;5082254;28;21881;-67
2022/11/03 10:37:28;;;;;;;;;;;14.60;99.90;;;;;;5051646;28;19931;-67
2022/11/03 10:39:55;;;;;;;;;;;14.50;99.90;;;;;;5049444;28;19925;-68
2022/11/03 10:42:25;;;;;;;;;;;14.60;99.90;;;;;;5047660;28;19928;-70
2022/11/03 10:44:52;;;;;;;;;;;14.60;99.90;;;;;;5052568;28;20041;-67
2022/11/03 10:47:22;;;;;;;;;;;14.60;99.90;;;;;;5048465;28;20057;-66
2022/11/03 10:49:47;;;;;;;;;;;14.60;99.90;;;;;;5052736;28;20367;-68
2022/11/03 10:52:14;;;;;;;;;;;14.70;99.90;;;;;;5079651;28;19928;-68
2022/11/03 10:54:39;;;;;;;;;;;14.70;99.90;;;;;;5050062;28;19924;-66
2022/11/03 10:57:05;;;;;;;;;;;14.80;99.90;;;;;;5047680;28;19947;-70
2022/11/03 10:59:33;;;;;;;;;;;14.90;99.90;;;;;;5049075;28;20015;-69
2022/11/03 11:01:59;;;;;;;;;;;15.00;99.90;;;;;;5047116;28;19975;-67
2022/11/03 11:04:26;;;;;;;;;;;15.00;99.90;;;;;;5068501;28;20028;-67
2022/11/03 11:06:51;;;;;;;;;;;15.10;99.90;;;;;;5049506;28;19956;-67
2022/11/03 11:09:22;;;;;;;;;;;15.10;99.90;;;;;;5084245;28;20015;-66
2022/11/03 11:12:03;;;;;;;;;;;15.10;99.90;;;;;;5048492;28;19928;-67
2022/11/03 11:14:28;;;;;;;;;;;15.10;99.90;;;;;;5049605;28;20481;-69
2022/11/03 11:16:55;;;;;;;;;;;15.00;99.90;;;;;;5049741;28;19935;-67
2022/11/03 11:19:21;;;;;;;;;;;15.00;99.90;;;;;;5083821;28;20051;-68
2022/11/03 11:21:48;;;;;;;;;;;14.90;99.90;;;;;;5048025;28;19933;-68
2022/11/03 11:24:33;;;;;;;;;;;14.90;99.90;;;;;;5051067;28;19928;-67
2022/11/03 11:27:00;;;;;;;;;;;14.90;99.90;;;;;;5048680;28;19924;-68
2022/11/03 11:29:25;;;;;;;;;;;14.90;99.90;;;;;;5086336;28;19929;-68
2022/11/03 11:31:51;;;;;;;;;;;14.80;99.90;;;;;;5043397;28;19935;-68
2022/11/03 11:34:36;;;;;;;;;;;14.90;99.90;;;;;;5045992;28;19924;-69
2022/11/03 11:37:02;;;;;;;;;;;14.90;99.90;;;;;;5049015;28;21333;-68
2022/11/03 11:39:29;;;;;;;;;;;14.90;99.90;;;;;;5047933;28;19932;-68
2022/11/03 11:42:12;;;;;;;;;;;14.90;99.90;;;;;;5029809;28;20302;-67
2022/11/03 11:44:49;;;;;;;;;;;14.80;99.90;;;;;;5083122;27;19993;-70
2022/11/03 11:47:33;;;;;;;;;;;14.80;99.90;;;;;;5050944;28;19936;-67
2022/11/03 11:49:59;;;;;;;;;;;14.70;99.90;;;;;;5045379;28;20436;-66
2022/11/03 11:52:25;;;;;;;;;;;14.60;99.90;;;;;;5052701;28;20458;-68
2022/11/03 11:54:51;;;;;;;;;;;14.70;99.90;;;;;;5045600;28;20371;-67
2022/11/03 11:57:18;;;;;;;;;;;14.70;99.90;;;;;;5042842;28;19974;-68
2022/11/03 11:59:44;;;;;;;;;;;14.60;99.90;;;;;;5049971;28;19928;-67
2022/11/03 12:02:17;;;;;;;;;;;14.60;99.90;;;;;;5077890;27;19936;-67
2022/11/03 12:04:45;;;;;;;;;;;14.60;99.90;;;;;;5048093;28;19924;-67
2022/11/03 12:07:12;;;;;;;;;;;14.60;99.90;;;;;;5047253;28;19924;-67
2022/11/03 12:09:39;;;;;;;;;;;14.60;99.90;;;;;;5047948;28;20367;-67
2022/11/03 12:12:04;;;;;;;;;;;14.60;99.90;;;;;;5049843;28;19929;-67
2022/11/03 12:14:30;;;;;;;;;;;14.60;99.90;;;;;;5077307;28;19929;-68
2022/11/03 12:17:15;;;;;;;;;;;14.60;99.90;;;;;;5078865;27;20488;-68
2022/11/03 12:19:45;;;;;;;;;;;14.60;99.90;;;;;;5048515;28;19955;-68
2022/11/03 12:22:23;;;;;;;;;;;14.60;99.90;;;;;;5076433;27;19935;-69
2022/11/03 12:24:48;;;;;;;;;;;14.70;99.90;;;;;;5049858;28;21459;-69
2022/11/03 12:27:23;;;;;;;;;;;14.90;99.90;;;;;;5040631;28;20434;-67
2022/11/03 12:29:51;;;;;;;;;;;15.10;99.90;;;;;;5053048;28;19959;-68
2022/11/03 12:32:17;;;;;;;;;;;15.20;99.90;;;;;;5062867;28;19924;-69
2022/11/03 12:34:43;;;;;;;;;;;15.30;99.90;;;;;;5119741;27;20032;-68
2022/11/03 12:37:08;;;;;;;;;;;15.40;99.90;;;;;;5062374;28;19935;-68
2022/11/03 12:39:34;;;;;;;;;;;15.50;99.90;;;;;;5069157;28;19920;-67
2022/11/03 12:42:00;;;;;;;;;;;15.50;99.90;;;;;;5054854;28;19933;-68
2022/11/03 12:44:25;;;;;;;;;;;15.50;99.90;;;;;;5097179;28;19921;-67
2022/11/03 12:46:51;;;;;;;;;;;15.50;99.90;;;;;;5059736;28;19932;-67
2022/11/03 12:49:17;;;;;;;;;;;15.40;99.90;;;;;;5060342;28;19925;-70
2022/11/03 12:51:42;;;;;;;;;;;15.40;99.90;;;;;;5050799;28;20010;-70
2022/11/03 12:54:08;;;;;;;;;;;15.30;99.90;;;;;;5049381;28;20382;-68
2022/11/03 12:56:33;;;;;;;;;;;15.20;99.90;;;;;;5066004;28;19920;-68
2022/11/03 12:58:59;;;;;;;;;;;15.10;99.90;;;;;;5055545;28;19927;-69
2022/11/03 13:01:24;;;;;;;;;;;15.10;99.90;;;;;;5085990;28;19925;-68
2022/11/03 13:03:50;;;;;;;;;;;15.00;99.90;;;;;;5064177;28;19924;-68
2022/11/03 13:06:16;;;;;;;;;;;15.00;99.90;;;;;;5066879;28;19929;-67
2022/11/03 13:08:41;;;;;;;;;;;15.00;99.90;;;;;;5059622;28;20065;-67
2022/11/03 13:12:29;;;;;;;;;;;15.00;99.90;;;;;;5086878;28;19921;-68
2022/11/03 13:13:52;;;;;;;;;;;15.00;99.90;;;;;;5059412;28;19947;-69
2022/11/03 13:16:18;;;;;;;;;;;15.00;99.90;;;;;;5073405;28;19920;-67
2022/11/03 13:18:44;;;;;;;;;;;15.00;99.90;;;;;;5066428;28;19924;-68
2022/11/03 13:21:09;;;;;;;;;;;15.00;99.90;;;;;;5072793;28;19924;-68
2022/11/03 13:23:35;;;;;;;;;;;14.90;99.90;;;;;;5057623;28;20248;-68
2022/11/03 13:26:00;;;;;;;;;;;14.90;99.90;;;;;;5067312;28;19928;-68
2022/11/03 13:28:26;;;;;;;;;;;14.90;99.90;;;;;;5074884;28;19928;-67
2022/11/03 13:30:51;;;;;;;;;;;14.90;99.90;;;;;;5074291;28;19936;-67
2022/11/03 13:33:17;;;;;;;;;;;14.90;99.90;;;;;;5070384;28;20366;-67
2022/11/03 13:35:42;;;;;;;;;;;14.90;99.90;;;;;;5111075;27;20010;-67
2022/11/03 13:38:08;;;;;;;;;;;14.80;99.90;;;;;;5078289;28;19921;-70
2022/11/03 13:40:33;;;;;;;;;;;14.80;99.90;;;;;;5075344;28;19973;-68
2022/11/03 13:42:59;;;;;;;;;;;14.80;99.90;;;;;;5071174;28;19935;-67
2022/11/03 13:45:24;;;;;;;;;;;14.70;99.90;;;;;;5082341;28;19930;-67
2022/11/03 13:47:50;;;;;;;;;;;14.70;99.90;;;;;;5067724;28;19928;-66
2022/11/03 13:50:16;;;;;;;;;;;14.70;99.90;;;;;;5071151;28;19984;-69
2022/11/03 13:52:42;;;;;;;;;;;14.80;99.90;;;;;;5069063;28;19928;-67
2022/11/03 13:55:08;;;;;;;;;;;14.90;99.90;;;;;;5092369;28;19944;-67
2022/11/03 13:57:34;;;;;;;;;;;15.00;99.90;;;;;;5074847;28;19962;-67
2022/11/03 13:59:59;;;;;;;;;;;15.00;99.90;;;;;;5103092;27;20335;-66
2022/11/03 14:02:25;;;;;;;;;;;15.00;99.90;;;;;;5072230;28;19931;-67
2022/11/03 14:04:51;;;;;;;;;;;15.00;99.90;;;;;;5075364;28;20373;-68
2022/11/03 14:07:16;;;;;;;;;;;15.00;99.90;;;;;;5074121;28;19924;-67
2022/11/03 14:09:42;;;;;;;;;;;14.90;99.90;;;;;;5082779;28;19966;-68
2022/11/03 14:14:52;;;;;;;;;;;14.80;99.90;;;;;;5083459;28;19943;-67
2022/11/03 14:17:17;;;;;;;;;;;14.80;99.90;;;;;;5074207;28;20465;-66
2022/11/03 14:19:43;;;;;;;;;;;14.80;99.90;;;;;;5075211;28;19971;-68
2022/11/03 14:22:08;;;;;;;;;;;14.70;99.90;;;;;;5066976;28;19928;-68
2022/11/03 14:24:34;;;;;;;;;;;14.70;99.90;;;;;;5068890;28;19921;-68
2022/11/03 14:27:00;;;;;;;;;;;14.70;99.90;;;;;;5071892;28;20011;-67
2022/11/03 14:29:26;;;;;;;;;;;14.70;99.90;;;;;;5071129;28;20038;-67
2022/11/03 14:31:51;;;;;;;;;;;14.70;99.90;;;;;;5071559;28;19921;-67
2022/11/03 14:34:17;;;;;;;;;;;14.60;99.90;;;;;;5069352;28;20363;-67
2022/11/03 14:36:42;;;;;;;;;;;14.60;99.90;;;;;;5071810;28;19920;-67
2022/11/03 14:39:08;;;;;;;;;;;14.60;99.90;;;;;;5060901;28;19932;-67
2022/11/03 14:44:18;;;;;;;;;;;14.50;99.90;;;;;;5104104;28;19978;-67
2022/11/03 14:46:43;;;;;;;;;;;14.40;99.90;;;;;;5071589;28;19928;-68
2022/11/03 14:49:09;;;;;;;;;;;14.40;99.90;;;;;;5060878;28;19925;-66